Time;durP1;ratioP1;P1;durP2;ratioP2;P2;SDS_P1;SDS_P2;PMS_P1;PMS_P2;Temp;Humidity;BMP_temperature;BMP_pressure;BME280_temperature;BME280_humidity;BME280_pressure;Samples;Min_cycle;Max_cycle;Signal;HPM_P1;HPM_P2
2021/04/22 00:01:35;;;;;;;21.30;17.40;;;;;;;11.48;48.93;99831.02;114436;1196;103069;-86
2021/04/22 00:04:03;;;;;;;22.10;17.60;;;;;;;11.49;49.10;99829.22;114772;1196;103123;-87
2021/04/22 00:06:30;;;;;;;18.30;16.40;;;;;;;11.48;49.44;99830.17;114457;1196;103025;-86
2021/04/22 00:08:57;;;;;;;19.57;17.07;;;;;;;11.45;49.71;99835.60;114750;1196;103179;-87
2021/04/22 00:11:24;;;;;;;25.00;18.93;;;;;;;11.44;49.95;99829.41;114442;1196;103495;-88
2021/04/22 00:13:52;;;;;;;19.63;16.43;;;;;;;11.43;50.07;99835.66;114621;1196;103482;-88
2021/04/22 00:16:19;;;;;;;26.68;19.10;;;;;;;11.43;49.98;99829.48;114394;1197;103200;-86
2021/04/22 00:18:46;;;;;;;21.73;18.73;;;;;;;11.41;50.34;99832.20;114414;1196;103942;-87
2021/04/22 00:21:14;;;;;;;25.77;20.47;;;;;;;11.38;50.82;99840.30;114530;1196;103475;-86
2021/04/22 00:23:41;;;;;;;23.63;19.05;;;;;;;11.34;51.12;99831.58;114064;1196;103111;-87
2021/04/22 00:26:07;;;;;;;23.13;18.80;;;;;;;11.35;51.47;99843.95;114575;1196;103121;-88
2021/04/22 00:28:34;;;;;;;22.67;17.63;;;;;;;11.34;51.23;99826.25;114484;1196;103255;-85
2021/04/22 00:31:01;;;;;;;24.70;20.07;;;;;;;11.32;51.79;99829.89;114357;1196;103504;-85
2021/04/22 00:33:31;;;;;;;25.20;20.77;;;;;;;11.30;51.66;99835.30;114415;1196;103282;-87
2021/04/22 00:35:58;;;;;;;26.73;19.93;;;;;;;11.29;52.37;99837.99;114291;1196;103131;-86
2021/04/22 00:38:25;;;;;;;23.30;20.50;;;;;;;11.26;52.69;99848.78;114004;1196;103277;-89
2021/04/22 00:40:51;;;;;;;26.43;19.60;;;;;;;11.21;53.04;99863.16;114312;1196;103207;-87
2021/04/22 00:43:19;;;;;;;25.13;20.17;;;;;;;11.14;53.59;99860.77;114261;1196;103738;-87
2021/04/22 00:45:47;;;;;;;26.53;22.05;;;;;;;11.08;54.04;99864.54;114398;1196;103134;-87
2021/04/22 00:48:17;;;;;;;26.93;20.93;;;;;;;11.08;54.39;99867.20;114327;1196;103199;-86
2021/04/22 00:50:44;;;;;;;21.50;18.37;;;;;;;11.06;54.31;99866.38;114490;1196;103223;-87
2021/04/22 00:53:26;;;;;;;25.23;19.73;;;;;;;11.06;55.07;99870.85;114421;1196;103341;-87
2021/04/22 00:55:55;;;;;;;22.00;18.55;;;;;;;11.01;55.21;99871.89;114442;1196;103044;-88
2021/04/22 00:58:22;;;;;;;21.10;18.50;;;;;;;11.02;55.35;99870.09;114672;1196;103597;-88
2021/04/22 01:00:57;;;;;;;22.30;18.73;;;;;;;10.97;55.46;99872.05;114483;1196;103156;-88
2021/04/22 01:03:26;;;;;;;20.10;16.78;;;;;;;10.96;55.63;99871.19;114392;1196;103096;-88
2021/04/22 01:05:56;;;;;;;19.73;15.03;;;;;;;10.98;55.66;99849.81;114438;1197;103217;-87
2021/04/22 01:08:23;;;;;;;21.40;14.83;;;;;;;10.97;55.82;99859.61;114301;1199;103374;-88
2021/04/22 01:10:50;;;;;;;21.53;15.03;;;;;;;11.00;55.71;99867.48;114150;1199;103271;-87
2021/04/22 01:13:18;;;;;;;17.20;14.15;;;;;;;11.00;55.82;99877.28;114195;1200;103242;-88
2021/04/22 01:15:45;;;;;;;14.25;12.50;;;;;;;10.97;55.57;99883.59;114157;1199;103303;-88
2021/04/22 01:18:12;;;;;;;16.20;13.30;;;;;;;10.96;55.17;99887.17;114423;1196;103111;-88
2021/04/22 01:20:43;;;;;;;14.20;12.58;;;;;;;10.97;55.59;99888.03;114484;1196;103181;-88
2021/04/22 01:23:10;;;;;;;15.80;12.38;;;;;;;10.97;54.81;99882.70;114540;1196;103271;-87
2021/04/22 01:25:42;;;;;;;16.13;13.20;;;;;;;10.90;54.75;99883.86;114745;1196;103098;-87
2021/04/22 01:28:11;;;;;;;14.80;10.83;;;;;;;10.82;54.56;99876.14;113985;1196;103126;-87
2021/04/22 01:30:42;;;;;;;12.90;11.33;;;;;;;10.78;54.58;99878.06;114378;1196;103171;-87
2021/04/22 01:33:12;;;;;;;13.05;11.03;;;;;;;10.71;54.71;99879.19;113981;1196;103456;-88
2021/04/22 01:35:44;;;;;;;10.97;9.83;;;;;;;10.64;54.74;99883.86;114204;1199;103092;-86
2021/04/22 01:38:12;;;;;;;12.90;11.45;;;;;;;10.58;54.96;99880.55;114100;1199;103131;-84
2021/04/22 01:40:55;;;;;;;13.97;10.73;;;;;;;10.51;55.49;99880.74;114520;1196;103237;-89
2021/04/22 01:43:22;;;;;;;14.03;11.53;;;;;;;10.48;55.30;99880.86;114845;1196;103083;-86
2021/04/22 01:45:49;;;;;;;12.80;10.57;;;;;;;10.41;55.43;99874.02;114523;1196;103266;-89
2021/04/22 01:48:17;;;;;;;13.05;10.00;;;;;;;10.36;55.07;99883.95;114506;1197;103176;-88
2021/04/22 01:50:44;;;;;;;12.47;11.17;;;;;;;10.34;55.21;99885.75;114403;1199;103344;-88
2021/04/22 01:53:12;;;;;;;14.10;11.00;;;;;;;10.31;55.66;99899.16;114332;1199;103127;-86
2021/04/22 01:55:41;;;;;;;14.50;10.50;;;;;;;10.25;55.91;99907.34;114309;1199;103258;-88
2021/04/22 01:58:13;;;;;;;12.95;11.65;;;;;;;10.16;56.24;99904.06;114607;1196;103178;-87
2021/04/22 02:00:43;;;;;;;12.03;10.77;;;;;;;10.17;56.78;99904.92;114510;1196;103035;-89
2021/04/22 02:03:10;;;;;;;13.50;10.95;;;;;;;10.18;56.72;99907.56;114591;1196;103101;-88
2021/04/22 02:05:51;;;;;;;13.78;10.48;;;;;;;10.24;57.38;99919.80;114364;1196;103070;-88
2021/04/22 02:08:18;;;;;;;15.55;10.88;;;;;;;10.24;57.37;99917.13;114538;1196;103500;-87
2021/04/22 02:10:59;;;;;;;15.23;12.00;;;;;;;10.21;57.21;99917.23;114257;1199;103127;-88
2021/04/22 02:13:28;;;;;;;14.00;11.87;;;;;;;10.22;57.45;99916.30;114286;1198;104324;-90
2021/04/22 02:15:54;;;;;;;13.63;11.60;;;;;;;10.21;57.89;99909.26;114226;1198;103422;-88
2021/04/22 02:18:21;;;;;;;15.47;12.97;;;;;;;10.13;57.68;99917.48;114179;1200;103297;-89
2021/04/22 02:20:50;;;;;;;14.13;12.53;;;;;;;10.13;58.60;99922.80;114285;1200;103237;-88
2021/04/22 02:23:21;;;;;;;14.27;11.27;;;;;;;10.13;58.33;99925.47;114432;1200;103442;-87
2021/04/22 02:26:03;;;;;;;20.87;14.53;;;;;;;10.10;58.86;99932.66;113921;1203;103156;-86
2021/04/22 02:28:34;;;;;;;18.90;13.60;;;;;;;10.08;58.63;99938.04;113940;1203;103185;-89
2021/04/22 02:31:00;;;;;;;17.27;14.60;;;;;;;10.09;58.92;99941.56;114344;1199;103760;-88
2021/04/22 02:33:42;;;;;;;23.07;16.07;;;;;;;10.05;59.09;99935.48;115158;1199;103047;-88
2021/04/22 02:36:09;;;;;;;15.83;13.27;;;;;;;10.03;59.37;99931.99;114600;1199;103162;-89
2021/04/22 02:38:36;;;;;;;19.60;13.55;;;;;;;10.01;59.12;99944.48;114562;1200;103370;-86
2021/04/22 02:41:03;;;;;;;21.60;12.83;;;;;;;9.99;59.04;99946.31;114405;1199;103271;-88
2021/04/22 02:43:30;;;;;;;13.33;11.87;;;;;;;9.94;58.86;99950.90;114686;1199;103144;-88
2021/04/22 02:45:57;;;;;;;14.40;12.23;;;;;;;9.90;59.15;99954.58;114966;1200;103061;-87
2021/04/22 02:48:26;;;;;;;13.03;11.70;;;;;;;9.88;59.11;99960.80;115654;1196;103198;-87
2021/04/22 02:50:54;;;;;;;11.85;10.58;;;;;;;9.88;58.97;99960.80;115624;1196;103111;-88
2021/04/22 02:53:22;;;;;;;12.57;9.93;;;;;;;9.82;58.63;99968.10;115391;1196;103095;-88
2021/04/22 02:55:49;;;;;;;17.03;11.13;;;;;;;9.85;58.76;99952.07;115036;1196;103096;-88
2021/04/22 02:58:23;;;;;;;12.70;10.40;;;;;;;9.87;58.44;99951.08;114643;1196;103134;-88
2021/04/22 03:00:51;;;;;;;13.90;11.30;;;;;;;9.87;58.70;99940.44;114175;1196;103310;-88
2021/04/22 03:03:18;;;;;;;12.10;10.07;;;;;;;9.87;58.59;99944.90;114169;1196;103157;-88
2021/04/22 03:05:46;;;;;;;13.60;10.10;;;;;;;9.87;58.50;99931.60;114114;1196;103195;-89
2021/04/22 03:08:13;;;;;;;14.30;11.85;;;;;;;9.85;58.52;99920.16;114037;1196;103114;-89
2021/04/22 03:10:40;;;;;;;11.47;10.27;;;;;;;9.84;58.26;99910.42;114385;1196;103127;-88
2021/04/22 03:13:07;;;;;;;12.67;10.13;;;;;;;9.79;58.92;99925.66;114423;1196;103099;-88
2021/04/22 03:15:35;;;;;;;12.17;9.27;;;;;;;9.79;58.76;99944.27;114620;1196;103463;-87
2021/04/22 03:18:03;;;;;;;15.05;9.90;;;;;;;9.73;58.48;99947.99;114658;1196;103124;-88
2021/04/22 03:20:31;;;;;;;11.88;9.93;;;;;;;9.69;58.62;99967.62;114705;1196;103361;-89
2021/04/22 03:22:59;;;;;;;11.03;9.65;;;;;;;9.64;58.89;99978.38;114641;1196;103084;-88
2021/04/22 03:25:27;;;;;;;12.90;11.40;;;;;;;9.68;58.82;99976.50;114560;1196;103956;-90
2021/04/22 03:27:54;;;;;;;12.87;10.87;;;;;;;9.63;58.57;99975.77;114621;1196;103083;-89
2021/04/22 03:30:27;;;;;;;15.78;10.38;;;;;;;9.52;58.82;99966.30;114812;1196;103201;-89
2021/04/22 03:32:54;;;;;;;11.95;9.08;;;;;;;9.50;58.64;99977.89;114658;1196;102043;-88
2021/04/22 03:35:21;;;;;;;14.03;9.77;;;;;;;9.53;58.97;99988.46;114616;1196;103093;-89
2021/04/22 03:38:03;;;;;;;10.38;9.13;;;;;;;9.53;58.69;99996.44;114425;1196;103316;-87
2021/04/22 03:40:30;;;;;;;13.10;8.80;;;;;;;9.52;58.83;100000.00;114489;1196;103095;-89
2021/04/22 03:42:57;;;;;;;8.53;7.63;;;;;;;9.53;58.54;100004.41;114670;1196;103056;-88
2021/04/22 03:45:25;;;;;;;10.78;8.13;;;;;;;9.50;58.61;100004.48;114566;1196;103226;-89
2021/04/22 03:47:53;;;;;;;9.77;8.67;;;;;;;9.48;58.18;100012.50;114644;1197;103182;-87
2021/04/22 03:50:20;;;;;;;10.63;7.40;;;;;;;9.37;57.53;100010.15;114562;1196;103165;-86
2021/04/22 03:52:48;;;;;;;10.10;6.40;;;;;;;9.31;57.07;99996.16;114630;1196;103133;-85
2021/04/22 03:55:16;;;;;;;9.63;6.83;;;;;;;9.24;57.13;99981.31;114522;1199;103375;-89
2021/04/22 03:57:43;;;;;;;10.60;6.83;;;;;;;9.12;57.22;99993.14;114609;1196;103121;-84
2021/04/22 04:00:13;;;;;;;10.80;6.63;;;;;;;9.00;58.44;99996.99;114546;1196;103317;-86
2021/04/22 04:02:40;;;;;;;9.48;7.45;;;;;;;8.97;59.27;100010.33;114611;1196;103362;-83
2021/04/22 04:05:08;;;;;;;7.17;5.73;;;;;;;8.96;59.33;100019.23;114367;1196;103194;-89
2021/04/22 04:07:35;;;;;;;7.25;5.25;;;;;;;8.94;59.60;100011.28;114570;1196;103834;-88
2021/04/22 04:10:03;;;;;;;11.87;6.37;;;;;;;8.84;59.41;100020.42;114550;1196;103095;-83
2021/04/22 04:12:44;;;;;;;7.13;5.80;;;;;;;8.74;59.93;100008.28;114136;1198;103201;-82
2021/04/22 04:15:25;;;;;;;9.60;5.90;;;;;;;8.65;59.55;100026.19;114240;1199;103780;-84
2021/04/22 04:17:52;;;;;;;9.60;7.13;;;;;;;8.53;60.36;100034.45;114231;1199;103860;-84
2021/04/22 04:20:19;;;;;;;9.10;6.30;;;;;;;8.44;60.28;100038.15;114346;1199;103160;-86
2021/04/22 04:22:47;;;;;;;6.87;6.17;;;;;;;8.40;60.67;100057.70;114275;1199;103159;-87
2021/04/22 04:25:14;;;;;;;9.53;7.07;;;;;;;8.31;61.39;100052.61;114394;1200;103286;-86
2021/04/22 04:27:42;;;;;;;10.80;7.78;;;;;;;8.29;61.64;100044.69;114134;1198;103322;-85
2021/04/22 04:30:11;;;;;;;9.85;6.50;;;;;;;8.17;62.30;100067.05;114327;1200;103271;-84
2021/04/22 04:32:40;;;;;;;11.33;7.20;;;;;;;8.00;64.74;100066.55;116469;1199;102333;-88
2021/04/22 04:35:09;;;;;;;7.53;6.20;;;;;;;7.98;64.45;100071.00;114325;1200;103188;-82
2021/04/22 04:37:36;;;;;;;6.40;5.73;;;;;;;7.90;65.36;100075.59;115048;1199;103012;-86
2021/04/22 04:40:05;;;;;;;6.95;5.90;;;;;;;7.89;66.12;100076.48;114161;1199;103735;-86
2021/04/22 04:42:32;;;;;;;11.83;6.03;;;;;;;7.81;66.08;100074.88;114091;1200;103240;-87
2021/04/22 04:44:59;;;;;;;6.23;5.50;;;;;;;7.76;66.54;100086.48;114273;1200;103377;-84
2021/04/22 04:47:25;;;;;;;10.50;5.33;;;;;;;7.72;66.59;100100.67;114255;1199;103575;-86
2021/04/22 04:49:52;;;;;;;6.80;5.10;;;;;;;7.71;67.05;100099.81;114074;1197;103275;-87
2021/04/22 04:52:19;;;;;;;14.60;6.48;;;;;;;7.71;67.05;100089.22;114658;1196;103261;-85
2021/04/22 04:54:45;;;;;;;9.47;5.73;;;;;;;7.69;67.01;100093.66;114472;1200;103300;-86
2021/04/22 04:57:12;;;;;;;6.55;4.90;;;;;;;7.69;66.99;100096.30;114577;1197;103076;-86
2021/04/22 04:59:39;;;;;;;6.58;4.53;;;;;;;7.63;65.94;100110.55;114365;1196;103079;-82
2021/04/22 05:02:06;;;;;;;6.50;5.47;;;;;;;7.52;66.12;100104.60;114107;1196;103197;-86
2021/04/22 05:04:33;;;;;;;12.37;4.77;;;;;;;7.39;66.71;100101.30;114650;1196;103775;-85
2021/04/22 05:06:59;;;;;;;9.80;5.30;;;;;;;7.34;66.41;100100.50;114580;1196;103166;-86
2021/04/22 05:09:26;;;;;;;4.85;3.85;;;;;;;7.40;67.25;100091.55;114587;1196;103044;-85
2021/04/22 05:11:53;;;;;;;4.98;4.28;;;;;;;7.44;65.75;100080.89;114507;1196;103220;-84
2021/04/22 05:14:19;;;;;;;7.40;4.53;;;;;;;7.45;66.30;100084.40;114514;1196;103533;-86
2021/04/22 05:16:46;;;;;;;6.15;4.10;;;;;;;7.47;65.79;100078.17;114553;1196;103667;-86
2021/04/22 05:19:13;;;;;;;7.98;5.05;;;;;;;7.53;66.14;100088.67;114531;1196;103111;-86
2021/04/22 05:21:40;;;;;;;8.00;5.40;;;;;;;7.57;67.23;100097.44;114594;1196;103959;-86
2021/04/22 05:24:07;;;;;;;7.03;4.77;;;;;;;7.56;67.00;100087.73;115173;1196;103326;-86
2021/04/22 05:26:34;;;;;;;9.13;4.88;;;;;;;7.52;67.14;100091.35;114531;1197;103281;-85
2021/04/22 05:29:00;;;;;;;4.95;4.03;;;;;;;7.56;66.47;100100.09;114456;1196;103051;-86
2021/04/22 05:31:27;;;;;;;10.13;6.15;;;;;;;7.59;66.94;100100.92;114548;1196;103178;-86
2021/04/22 05:33:54;;;;;;;6.08;4.63;;;;;;;7.68;66.54;100103.39;114605;1196;103246;-85
2021/04/22 05:36:21;;;;;;;12.63;4.97;;;;;;;7.72;67.05;100108.63;114576;1196;103217;-86
2021/04/22 05:38:47;;;;;;;12.80;7.63;;;;;;;7.66;67.37;100112.28;114405;1196;103431;-82
2021/04/22 05:41:15;;;;;;;11.93;7.03;;;;;;;7.55;67.54;100106.33;114624;1196;103255;-87
2021/04/22 05:43:42;;;;;;;9.55;6.10;;;;;;;7.55;67.25;100116.92;114443;1196;103255;-86
2021/04/22 05:46:09;;;;;;;11.25;5.43;;;;;;;7.54;67.66;100116.03;114518;1196;103111;-86
2021/04/22 05:48:36;;;;;;;7.88;6.18;;;;;;;7.65;67.60;100119.38;114516;1196;103047;-86
2021/04/22 05:51:03;;;;;;;11.90;5.60;;;;;;;7.76;67.51;100113.00;114478;1196;103189;-84
2021/04/22 05:53:30;;;;;;;12.17;6.70;;;;;;;7.79;67.60;100118.23;114356;1197;103341;-87
2021/04/22 05:55:57;;;;;;;12.77;6.00;;;;;;;7.89;66.83;100116.26;114641;1196;103166;-88
2021/04/22 05:58:24;;;;;;;13.13;6.27;;;;;;;7.86;66.16;100109.23;114558;1196;103275;-87
2021/04/22 06:00:51;;;;;;;9.58;6.30;;;;;;;7.80;67.32;100115.55;114479;1196;103189;-87
2021/04/22 06:03:18;;;;;;;8.87;6.53;;;;;;;7.78;66.47;100117.33;114465;1196;103292;-87
2021/04/22 06:05:47;;;;;;;12.95;7.30;;;;;;;7.84;67.02;100125.18;114507;1198;103307;-84
2021/04/22 06:08:13;;;;;;;9.88;5.85;;;;;;;7.99;68.10;100131.09;114396;1196;103325;-83
2021/04/22 06:10:40;;;;;;;8.87;6.13;;;;;;;8.00;67.21;100130.20;114440;1196;103188;-84
2021/04/22 06:13:08;;;;;;;11.93;7.00;;;;;;;7.89;67.29;100135.72;114566;1199;103112;-90
2021/04/22 06:15:35;;;;;;;12.53;7.20;;;;;;;7.91;66.61;100138.33;114901;1196;103098;-90
2021/04/22 06:18:20;;;;;;;9.38;7.68;;;;;;;7.94;67.21;100133.81;114628;1196;103210;-90
2021/04/22 06:20:48;;;;;;;12.53;9.27;;;;;;;8.04;67.68;100134.53;114888;1196;103268;-88
2021/04/22 06:23:27;;;;;;;11.70;7.70;;;;;;;8.06;66.93;100135.35;114267;1196;103386;-89
2021/04/22 06:25:56;;;;;;;12.93;8.23;;;;;;;8.07;66.68;100136.25;114440;1196;103050;-89
2021/04/22 06:28:23;;;;;;;8.55;5.75;;;;;;;8.10;66.97;100149.44;114592;1196;103166;-90
2021/04/22 06:30:50;;;;;;;9.80;6.17;;;;;;;8.10;66.25;100144.13;114617;1196;103148;-90
2021/04/22 06:33:19;;;;;;;7.50;5.53;;;;;;;8.12;65.66;100143.20;114601;1196;103076;-89
2021/04/22 06:35:45;;;;;;;9.47;5.47;;;;;;;8.26;64.77;100142.90;114640;1196;103664;-87
2021/04/22 06:38:12;;;;;;;6.60;4.87;;;;;;;8.43;64.78;100144.34;114579;1196;103095;-88
2021/04/22 06:40:39;;;;;;;8.33;5.37;;;;;;;8.52;63.79;100139.72;114617;1196;103120;-87
2021/04/22 06:43:10;;;;;;;10.73;5.43;;;;;;;8.56;62.36;100145.84;114519;1196;103179;-89
2021/04/22 06:45:38;;;;;;;13.07;5.47;;;;;;;8.57;59.95;100146.70;114537;1196;103482;-85
2021/04/22 06:48:07;;;;;;;11.90;5.85;;;;;;;8.57;60.59;100152.91;114571;1196;103258;-88
2021/04/22 06:50:35;;;;;;;8.30;4.88;;;;;;;8.59;59.26;100144.91;114980;1197;103114;-88
2021/04/22 06:53:02;;;;;;;11.75;4.88;;;;;;;8.65;59.58;100142.09;114559;1196;103204;-84
2021/04/22 06:55:30;;;;;;;7.73;4.60;;;;;;;8.68;59.55;100142.91;114538;1196;103274;-89
2021/04/22 06:58:01;;;;;;;10.43;5.05;;;;;;;8.68;58.18;100147.36;114496;1196;103377;-88
2021/04/22 07:00:33;;;;;;;8.13;4.63;;;;;;;8.75;59.08;100161.37;114592;1196;103083;-89
2021/04/22 07:03:05;;;;;;;7.40;4.08;;;;;;;8.67;56.52;100166.84;114489;1196;103417;-85
2021/04/22 07:05:34;;;;;;;6.73;3.40;;;;;;;8.55;52.67;100149.41;114769;1196;103076;-86
2021/04/22 07:08:03;;;;;;;9.88;3.98;;;;;;;8.48;53.41;100172.55;114655;1196;103091;-88
2021/04/22 07:10:30;;;;;;;8.80;4.00;;;;;;;8.45;53.65;100172.63;114668;1196;103290;-86
2021/04/22 07:12:57;;;;;;;10.87;4.47;;;;;;;8.47;52.83;100169.94;114951;1196;103092;-88
2021/04/22 07:15:25;;;;;;;9.33;4.27;;;;;;;8.50;52.03;100173.41;114644;1196;103109;-85
2021/04/22 07:17:54;;;;;;;9.07;4.30;;;;;;;8.58;52.05;100175.87;114757;1196;103102;-89
2021/04/22 07:20:22;;;;;;;9.03;4.43;;;;;;;8.58;51.43;100183.83;114291;1196;103112;-82
2021/04/22 07:22:54;;;;;;;8.40;5.00;;;;;;;8.52;49.71;100171.58;113756;1196;104129;-87
2021/04/22 07:25:23;;;;;;;6.43;3.33;;;;;;;8.54;50.47;100192.77;114258;1196;103255;-89
2021/04/22 07:27:49;;;;;;;22.10;4.78;;;;;;;8.53;49.70;100193.70;114180;1196;103574;-87
2021/04/22 07:30:17;;;;;;;8.45;3.85;;;;;;;8.56;49.65;100200.70;114120;1196;103185;-90
2021/04/22 07:32:45;;;;;;;8.03;4.03;;;;;;;8.53;48.87;100201.66;114188;1196;103301;-87
2021/04/22 07:35:12;;;;;;;4.83;3.23;;;;;;;8.44;46.07;100205.34;114248;1196;103198;-91
2021/04/22 07:37:39;;;;;;;9.77;4.40;;;;;;;8.40;46.67;100203.66;114383;1196;104122;-88
2021/04/22 07:40:08;;;;;;;6.25;4.18;;;;;;;8.43;46.48;100194.76;114499;1200;103188;-83
2021/04/22 07:42:36;;;;;;;8.37;4.33;;;;;;;8.50;46.61;100205.25;114104;1197;103281;-89
2021/04/22 07:45:03;;;;;;;11.43;4.13;;;;;;;8.58;47.14;100196.24;114504;1196;102989;-88
2021/04/22 07:47:31;;;;;;;7.47;4.70;;;;;;;8.65;46.36;100214.67;114455;1196;103126;-88
2021/04/22 07:50:00;;;;;;;9.60;4.70;;;;;;;8.58;45.59;100198.89;114553;1196;103674;-88
2021/04/22 07:52:29;;;;;;;9.68;5.08;;;;;;;8.59;45.13;100211.27;114870;1196;103192;-87
2021/04/22 07:54:58;;;;;;;10.10;4.80;;;;;;;8.66;46.10;100204.91;114579;1196;103224;-88
2021/04/22 07:57:29;;;;;;;9.80;4.50;;;;;;;8.74;46.33;100192.34;115194;1199;103140;-89
2021/04/22 07:59:57;;;;;;;11.88;5.20;;;;;;;8.84;46.92;100198.34;115032;1196;103175;-89
2021/04/22 08:02:38;;;;;;;11.57;4.60;;;;;;;8.88;46.24;100197.36;114991;1196;103070;-87
2021/04/22 08:05:08;;;;;;;10.90;5.27;;;;;;;8.98;46.41;100198.90;115041;1196;103271;-85
2021/04/22 08:07:43;;;;;;;11.05;5.00;;;;;;;9.07;46.00;100203.11;115075;1196;103197;-90
2021/04/22 08:10:15;;;;;;;11.93;4.43;;;;;;;9.10;43.10;100207.48;115284;1196;103095;-89
2021/04/22 08:13:03;;;;;;;9.48;4.50;;;;;;;9.17;43.14;100215.28;114971;1196;103240;-88
2021/04/22 08:15:33;;;;;;;17.98;4.38;;;;;;;9.30;43.29;100209.66;115228;1196;104916;-87
2021/04/22 08:18:02;;;;;;;7.08;3.65;;;;;;;9.25;43.28;100209.78;115315;1196;103869;-88
2021/04/22 08:20:29;;;;;;;8.70;4.83;;;;;;;9.24;43.27;100220.45;115353;1196;103278;-87
2021/04/22 08:22:58;;;;;;;15.80;4.90;;;;;;;9.22;42.38;100217.81;114926;1196;103518;-89
2021/04/22 08:25:46;;;;;;;8.75;4.70;;;;;;;9.33;42.39;100222.86;115150;1196;103117;-87
2021/04/22 08:28:15;;;;;;;13.37;4.50;;;;;;;9.45;41.70;100227.91;114825;1196;103140;-87
2021/04/22 08:30:46;;;;;;;8.43;5.03;;;;;;;9.52;41.48;100228.63;114694;1196;103197;-89
2021/04/22 08:33:15;;;;;;;12.40;4.00;;;;;;;9.64;41.06;100222.13;114581;1196;103113;-86
2021/04/22 08:35:43;;;;;;;6.75;3.40;;;;;;;9.77;41.08;100218.24;114584;1196;103163;-89
2021/04/22 08:38:11;;;;;;;12.00;4.47;;;;;;;9.90;39.66;100224.09;114760;1196;103015;-90
2021/04/22 08:40:38;;;;;;;9.45;3.78;;;;;;;9.94;37.33;100227.55;114647;1196;103239;-88
2021/04/22 08:43:05;;;;;;;7.90;4.20;;;;;;;10.01;36.57;100229.16;114690;1196;103047;-86
2021/04/22 08:45:32;;;;;;;17.75;5.78;;;;;;;10.11;37.83;100229.77;114586;1196;103006;-89
2021/04/22 08:48:02;;;;;;;8.27;4.03;;;;;;;10.18;37.66;100226.91;114550;1196;103189;-88
2021/04/22 08:50:35;;;;;;;7.30;4.43;;;;;;;10.40;37.51;100233.45;114392;1196;103249;-90
2021/04/22 08:53:14;;;;;;;8.18;4.60;;;;;;;10.43;36.51;100230.70;114506;1196;103543;-89
2021/04/22 08:55:44;;;;;;;9.98;4.83;;;;;;;10.51;37.24;100234.01;114793;1196;103403;-85
2021/04/22 08:58:11;;;;;;;6.28;4.48;;;;;;;10.59;36.55;100241.78;114516;1197;103285;-89
2021/04/22 09:00:48;;;;;;;10.40;5.50;;;;;;;10.63;36.17;100240.77;114119;1196;103287;-90
2021/04/22 09:03:15;;;;;;;9.48;4.65;;;;;;;10.81;37.15;100236.67;114556;1197;103278;-87
2021/04/22 09:05:50;;;;;;;8.45;4.35;;;;;;;11.06;36.71;100246.60;114520;1199;103192;-89
2021/04/22 09:08:20;;;;;;;8.05;3.93;;;;;;;11.24;36.88;100242.50;114739;1196;103834;-88
2021/04/22 09:10:48;;;;;;;10.13;6.13;;;;;;;11.43;35.37;100237.45;114735;1196;103114;-87
2021/04/22 09:13:17;;;;;;;7.25;3.98;;;;;;;11.57;36.21;100239.64;114668;1197;103050;-89
2021/04/22 09:15:48;;;;;;;6.40;3.67;;;;;;;11.77;36.50;100239.87;114693;1196;103505;-89
2021/04/22 09:18:25;;;;;;;6.95;4.25;;;;;;;12.63;35.31;100240.43;114693;1196;103179;-87
2021/04/22 09:20:54;;;;;;;12.05;3.90;;;;;;;13.37;34.17;100213.53;114940;1196;103201;-88
2021/04/22 09:23:26;;;;;;;8.90;3.60;;;;;;;14.82;32.12;100239.38;114620;1196;103201;-88
2021/04/22 09:25:58;;;;;;;10.57;4.37;;;;;;;15.74;29.06;100234.98;114507;1196;103268;-88
2021/04/22 09:28:44;;;;;;;13.18;3.45;;;;;;;17.03;26.80;100225.51;114807;1196;103575;-88
2021/04/22 09:31:25;;;;;;;10.90;4.35;;;;;;;18.35;26.58;100232.20;115004;1196;103160;-88
2021/04/22 09:34:16;;;;;;;12.43;4.30;;;;;;;18.93;23.64;100237.63;114730;1196;105701;-90
2021/04/22 09:36:53;;;;;;;11.93;4.20;;;;;;;19.71;24.26;100228.03;114470;1196;103185;-87
2021/04/22 09:39:27;;;;;;;11.95;3.90;;;;;;;20.48;23.61;100239.00;114704;1197;103159;-88
2021/04/22 09:42:01;;;;;;;8.73;3.97;;;;;;;21.50;21.98;100238.96;114248;1199;103226;-88
2021/04/22 09:44:30;;;;;;;11.77;4.03;;;;;;;22.21;20.90;100233.59;114522;1199;103540;-89
2021/04/22 09:47:23;;;;;;;6.25;2.93;;;;;;;21.92;20.56;100233.13;115356;1196;103126;-87
2021/04/22 09:50:06;;;;;;;7.50;3.63;;;;;;;21.22;21.11;100238.30;114475;1196;103112;-87
2021/04/22 09:52:45;;;;;;;7.08;3.83;;;;;;;20.62;21.67;100232.63;114460;1196;103264;-88
2021/04/22 09:55:21;;;;;;;13.03;5.55;;;;;;;21.74;21.17;100235.39;114199;1196;103083;-88
2021/04/22 09:57:51;;;;;;;13.20;3.20;;;;;;;22.63;19.76;100239.38;114411;1196;103271;-87
2021/04/22 10:00:28;;;;;;;5.90;3.20;;;;;;;22.67;18.95;100231.83;114545;1196;103210;-91
2021/04/22 10:02:59;;;;;;;8.60;3.30;;;;;;;21.79;20.51;100234.08;114413;1197;103172;-89
2021/04/22 10:05:33;;;;;;;7.80;3.43;;;;;;;21.70;19.55;100237.48;114479;1196;103016;-88
2021/04/22 10:08:10;;;;;;;6.37;2.97;;;;;;;22.99;18.95;100226.53;114490;1196;103550;-90
2021/04/22 10:10:57;;;;;;;8.98;4.10;;;;;;;23.48;19.08;100221.63;114421;1197;103056;-90
2021/04/22 10:13:24;;;;;;;8.75;3.80;;;;;;;23.48;18.93;100235.21;114479;1196;103265;-90
2021/04/22 10:15:59;;;;;;;5.25;2.48;;;;;;;23.25;17.79;100215.40;114483;1196;103152;-85
2021/04/22 10:18:48;;;;;;;8.57;3.80;;;;;;;22.60;19.04;100225.17;114509;1196;103092;-88
2021/04/22 10:21:17;;;;;;;7.48;3.83;;;;;;;22.24;19.10;100224.35;114497;1200;103197;-89
2021/04/22 10:23:50;;;;;;;7.68;3.25;;;;;;;22.29;19.77;100214.00;114623;1197;103159;-88
2021/04/22 10:26:28;;;;;;;6.90;3.43;;;;;;;21.52;20.21;100220.73;114595;1196;103517;-88
2021/04/22 10:29:28;;;;;;;10.83;3.60;;;;;;;20.46;21.49;100222.03;114487;1196;103452;-90
2021/04/22 10:32:09;;;;;;;10.37;3.63;;;;;;;18.95;23.07;100221.33;114539;1196;103198;-87
2021/04/22 10:34:46;;;;;;;7.20;3.80;;;;;;;19.02;23.75;100228.05;114673;1196;103129;-89
2021/04/22 10:37:23;;;;;;;5.97;3.03;;;;;;;20.33;20.48;100226.58;114393;1196;103147;-86
2021/04/22 10:40:19;;;;;;;7.88;2.45;;;;;;;20.46;21.40;100223.85;114540;1196;103153;-87
2021/04/22 10:43:15;;;;;;;7.67;3.50;;;;;;;19.78;21.17;100218.56;114453;1196;103192;-86
2021/04/22 10:46:22;;;;;;;7.20;2.40;;;;;;;18.89;23.16;100238.78;114679;1196;103179;-88
2021/04/22 10:49:00;;;;;;;8.10;3.90;;;;;;;17.86;24.67;100235.11;114737;1196;103101;-86
2021/04/22 10:51:42;;;;;;;6.70;4.10;;;;;;;18.04;24.59;100222.41;114489;1196;103239;-88
2021/04/22 10:54:41;;;;;;;6.53;3.43;;;;;;;17.28;25.24;100232.17;114708;1196;103082;-89
2021/04/22 10:57:34;;;;;;;11.85;4.45;;;;;;;16.62;26.48;100222.36;114664;1196;103195;-88
2021/04/22 11:00:09;;;;;;;5.73;3.07;;;;;;;16.25;27.53;100232.39;115051;1199;103239;-88
2021/04/22 11:02:51;;;;;;;10.70;5.93;;;;;;;15.50;28.50;100232.56;114310;1197;103265;-89
2021/04/22 11:08:39;;;;;;;8.10;5.08;;;;;;;14.85;30.11;100244.59;114226;1200;103364;-87
2021/04/22 11:11:25;;;;;;;8.68;3.73;;;;;;;14.57;30.00;100244.97;114099;1200;103425;-89
2021/04/22 11:14:12;;;;;;;8.75;4.80;;;;;;;14.34;31.10;100249.55;114532;1200;103303;-83
2021/04/22 11:17:42;;;;;;;9.20;4.85;;;;;;;14.01;31.04;100239.38;114364;1199;103255;-88
2021/04/22 11:20:27;;;;;;;9.13;4.85;;;;;;;13.70;32.01;100239.80;114218;1202;103546;-83
2021/04/22 11:23:13;;;;;;;7.38;4.80;;;;;;;13.53;32.38;100244.06;114097;1200;103309;-84
2021/04/22 11:25:56;;;;;;;8.10;4.80;;;;;;;13.35;32.99;100252.80;114267;1202;103540;-89
2021/04/22 11:28:57;;;;;;;7.07;4.30;;;;;;;13.14;33.02;100250.06;114063;1200;103322;-90
2021/04/22 11:31:57;;;;;;;7.53;3.87;;;;;;;13.17;34.25;100251.74;114332;1200;103537;-90